sensor_id;sensor_type;location;lat;lon;timestamp;P1;durP1;ratioP1;P2;durP2;ratioP2
6051;SDS011;3054;51.204;4.430;2022-08-19T00:00:35;38.50;;;31.20;;
6051;SDS011;3054;51.204;4.430;2022-08-19T00:03:02;41.33;;;32.80;;
6051;SDS011;3054;51.204;4.430;2022-08-19T00:05:30;37.80;;;31.57;;
6051;SDS011;3054;51.204;4.430;2022-08-19T00:07:57;36.10;;;31.93;;
6051;SDS011;3054;51.204;4.430;2022-08-19T00:10:24;35.90;;;30.50;;
6051;SDS011;3054;51.204;4.430;2022-08-19T00:12:52;38.00;;;32.60;;
6051;SDS011;3054;51.204;4.430;2022-08-19T00:15:19;40.93;;;32.43;;
6051;SDS011;3054;51.204;4.430;2022-08-19T00:17:47;36.30;;;32.33;;
6051;SDS011;3054;51.204;4.430;2022-08-19T00:20:16;45.80;;;37.50;;
6051;SDS011;3054;51.204;4.430;2022-08-19T00:22:45;42.60;;;34.43;;
6051;SDS011;3054;51.204;4.430;2022-08-19T00:25:13;44.63;;;36.57;;
6051;SDS011;3054;51.204;4.430;2022-08-19T00:30:28;51.73;;;38.60;;
6051;SDS011;3054;51.204;4.430;2022-08-19T00:32:55;47.53;;;36.17;;
6051;SDS011;3054;51.204;4.430;2022-08-19T00:35:22;47.40;;;38.00;;
6051;SDS011;3054;51.204;4.430;2022-08-19T00:37:52;42.17;;;36.10;;
6051;SDS011;3054;51.204;4.430;2022-08-19T00:40:19;44.10;;;36.60;;
6051;SDS011;3054;51.204;4.430;2022-08-19T00:42:48;46.93;;;36.20;;
6051;SDS011;3054;51.204;4.430;2022-08-19T00:45:24;53.60;;;37.93;;
6051;SDS011;3054;51.204;4.430;2022-08-19T00:47:56;45.30;;;36.93;;
6051;SDS011;3054;51.204;4.430;2022-08-19T00:50:23;47.07;;;38.00;;
6051;SDS011;3054;51.204;4.430;2022-08-19T00:52:52;52.70;;;37.70;;
6051;SDS011;3054;51.204;4.430;2022-08-19T00:55:20;50.83;;;38.53;;
6051;SDS011;3054;51.204;4.430;2022-08-19T00:57:51;49.87;;;39.50;;
6051;SDS011;3054;51.204;4.430;2022-08-19T01:00:22;53.63;;;40.50;;
6051;SDS011;3054;51.204;4.430;2022-08-19T01:02:50;46.07;;;36.93;;
6051;SDS011;3054;51.204;4.430;2022-08-19T01:05:20;50.53;;;38.17;;
6051;SDS011;3054;51.204;4.430;2022-08-19T01:07:50;44.27;;;37.40;;
6051;SDS011;3054;51.204;4.430;2022-08-19T01:10:20;54.17;;;38.10;;
6051;SDS011;3054;51.204;4.430;2022-08-19T01:12:50;46.93;;;37.37;;
6051;SDS011;3054;51.204;4.430;2022-08-19T01:15:19;48.03;;;38.53;;
6051;SDS011;3054;51.204;4.430;2022-08-19T01:17:49;51.53;;;39.00;;
6051;SDS011;3054;51.204;4.430;2022-08-19T01:20:19;61.03;;;37.63;;
6051;SDS011;3054;51.204;4.430;2022-08-19T01:22:51;52.13;;;36.10;;
6051;SDS011;3054;51.204;4.430;2022-08-19T01:25:20;52.03;;;38.63;;
6051;SDS011;3054;51.204;4.430;2022-08-19T01:27:51;49.33;;;38.00;;
6051;SDS011;3054;51.204;4.430;2022-08-19T01:30:19;53.50;;;40.90;;
6051;SDS011;3054;51.204;4.430;2022-08-19T01:32:48;55.17;;;40.23;;
6051;SDS011;3054;51.204;4.430;2022-08-19T01:35:18;59.40;;;42.27;;
6051;SDS011;3054;51.204;4.430;2022-08-19T01:37:47;51.67;;;39.60;;
6051;SDS011;3054;51.204;4.430;2022-08-19T01:40:18;58.70;;;40.80;;
6051;SDS011;3054;51.204;4.430;2022-08-19T01:42:47;53.00;;;38.43;;
6051;SDS011;3054;51.204;4.430;2022-08-19T01:45:14;42.23;;;34.90;;
6051;SDS011;3054;51.204;4.430;2022-08-19T01:47:41;46.47;;;35.00;;
6051;SDS011;3054;51.204;4.430;2022-08-19T01:50:10;47.20;;;33.17;;
6051;SDS011;3054;51.204;4.430;2022-08-19T01:52:38;50.93;;;32.53;;
6051;SDS011;3054;51.204;4.430;2022-08-19T01:55:09;42.57;;;32.30;;
6051;SDS011;3054;51.204;4.430;2022-08-19T01:57:39;39.10;;;31.53;;
6051;SDS011;3054;51.204;4.430;2022-08-19T02:00:10;46.53;;;31.93;;
6051;SDS011;3054;51.204;4.430;2022-08-19T02:02:39;40.80;;;30.33;;
6051;SDS011;3054;51.204;4.430;2022-08-19T02:05:06;42.23;;;31.90;;
6051;SDS011;3054;51.204;4.430;2022-08-19T02:07:33;39.50;;;29.77;;
6051;SDS011;3054;51.204;4.430;2022-08-19T02:10:01;43.37;;;31.93;;
6051;SDS011;3054;51.204;4.430;2022-08-19T02:12:30;36.43;;;29.87;;
6051;SDS011;3054;51.204;4.430;2022-08-19T02:14:58;44.83;;;32.20;;
6051;SDS011;3054;51.204;4.430;2022-08-19T02:17:26;42.07;;;32.73;;
6051;SDS011;3054;51.204;4.430;2022-08-19T02:19:53;44.23;;;31.80;;
6051;SDS011;3054;51.204;4.430;2022-08-19T02:22:21;46.90;;;33.47;;
6051;SDS011;3054;51.204;4.430;2022-08-19T02:24:50;42.90;;;33.00;;
6051;SDS011;3054;51.204;4.430;2022-08-19T02:27:17;39.90;;;32.60;;
6051;SDS011;3054;51.204;4.430;2022-08-19T02:29:46;41.80;;;33.33;;
6051;SDS011;3054;51.204;4.430;2022-08-19T02:32:14;45.07;;;33.90;;
6051;SDS011;3054;51.204;4.430;2022-08-19T02:34:41;44.43;;;34.10;;
6051;SDS011;3054;51.204;4.430;2022-08-19T02:37:08;73.17;;;33.80;;
6051;SDS011;3054;51.204;4.430;2022-08-19T02:39:55;47.80;;;34.10;;
6051;SDS011;3054;51.204;4.430;2022-08-19T02:42:21;51.10;;;34.80;;
6051;SDS011;3054;51.204;4.430;2022-08-19T02:44:50;43.90;;;32.00;;
6051;SDS011;3054;51.204;4.430;2022-08-19T02:47:18;48.10;;;35.10;;
6051;SDS011;3054;51.204;4.430;2022-08-19T02:49:45;41.30;;;32.03;;
6051;SDS011;3054;51.204;4.430;2022-08-19T02:52:15;47.53;;;34.97;;
6051;SDS011;3054;51.204;4.430;2022-08-19T02:54:42;48.23;;;35.50;;
6051;SDS011;3054;51.204;4.430;2022-08-19T02:57:09;46.83;;;35.60;;
6051;SDS011;3054;51.204;4.430;2022-08-19T02:59:36;50.37;;;37.30;;
6051;SDS011;3054;51.204;4.430;2022-08-19T03:02:04;50.27;;;35.93;;
6051;SDS011;3054;51.204;4.430;2022-08-19T03:04:31;52.53;;;36.57;;
6051;SDS011;3054;51.204;4.430;2022-08-19T03:06:58;49.33;;;35.27;;
6051;SDS011;3054;51.204;4.430;2022-08-19T03:09:25;43.70;;;32.70;;
6051;SDS011;3054;51.204;4.430;2022-08-19T03:11:51;44.40;;;30.57;;
6051;SDS011;3054;51.204;4.430;2022-08-19T03:14:18;46.57;;;32.00;;
6051;SDS011;3054;51.204;4.430;2022-08-19T03:16:46;45.50;;;32.50;;
6051;SDS011;3054;51.204;4.430;2022-08-19T03:19:17;44.63;;;32.07;;
6051;SDS011;3054;51.204;4.430;2022-08-19T03:21:46;46.73;;;32.63;;
6051;SDS011;3054;51.204;4.430;2022-08-19T03:24:13;46.47;;;31.77;;
6051;SDS011;3054;51.204;4.430;2022-08-19T03:26:42;56.87;;;31.30;;
6051;SDS011;3054;51.204;4.430;2022-08-19T03:29:13;49.23;;;30.60;;
6051;SDS011;3054;51.204;4.430;2022-08-19T03:31:41;42.90;;;29.60;;
6051;SDS011;3054;51.204;4.430;2022-08-19T03:34:09;48.20;;;31.00;;
6051;SDS011;3054;51.204;4.430;2022-08-19T03:36:39;48.60;;;30.10;;
6051;SDS011;3054;51.204;4.430;2022-08-19T03:39:06;42.63;;;28.53;;
6051;SDS011;3054;51.204;4.430;2022-08-19T03:41:35;37.00;;;28.03;;
6051;SDS011;3054;51.204;4.430;2022-08-19T03:44:04;43.23;;;27.87;;
6051;SDS011;3054;51.204;4.430;2022-08-19T03:46:32;36.40;;;27.60;;
6051;SDS011;3054;51.204;4.430;2022-08-19T03:49:00;36.40;;;25.37;;
6051;SDS011;3054;51.204;4.430;2022-08-19T03:51:29;38.50;;;26.53;;
6051;SDS011;3054;51.204;4.430;2022-08-19T03:54:02;34.57;;;24.87;;
6051;SDS011;3054;51.204;4.430;2022-08-19T03:56:30;43.17;;;28.20;;
6051;SDS011;3054;51.204;4.430;2022-08-19T03:59:00;38.30;;;25.10;;
6051;SDS011;3054;51.204;4.430;2022-08-19T04:01:30;39.87;;;26.80;;
6051;SDS011;3054;51.204;4.430;2022-08-19T04:03:57;37.17;;;22.80;;
6051;SDS011;3054;51.204;4.430;2022-08-19T04:06:28;41.87;;;25.20;;
6051;SDS011;3054;51.204;4.430;2022-08-19T04:08:57;38.37;;;23.60;;
6051;SDS011;3054;51.204;4.430;2022-08-19T04:11:29;40.33;;;24.20;;
6051;SDS011;3054;51.204;4.430;2022-08-19T04:13:57;37.50;;;23.17;;
6051;SDS011;3054;51.204;4.430;2022-08-19T04:16:26;31.30;;;21.07;;
6051;SDS011;3054;51.204;4.430;2022-08-19T04:18:54;35.57;;;23.10;;
6051;SDS011;3054;51.204;4.430;2022-08-19T04:21:23;35.23;;;22.77;;
6051;SDS011;3054;51.204;4.430;2022-08-19T04:23:51;34.10;;;23.33;;
6051;SDS011;3054;51.204;4.430;2022-08-19T04:26:19;32.87;;;22.80;;
6051;SDS011;3054;51.204;4.430;2022-08-19T04:28:49;38.87;;;22.33;;
6051;SDS011;3054;51.204;4.430;2022-08-19T04:31:18;30.77;;;21.30;;
6051;SDS011;3054;51.204;4.430;2022-08-19T04:33:47;39.07;;;23.43;;
6051;SDS011;3054;51.204;4.430;2022-08-19T04:36:18;37.37;;;22.50;;
6051;SDS011;3054;51.204;4.430;2022-08-19T04:38:46;31.07;;;22.07;;
6051;SDS011;3054;51.204;4.430;2022-08-19T04:41:14;31.47;;;21.80;;
6051;SDS011;3054;51.204;4.430;2022-08-19T04:44:00;33.53;;;21.20;;
6051;SDS011;3054;51.204;4.430;2022-08-19T04:46:28;36.13;;;21.70;;
6051;SDS011;3054;51.204;4.430;2022-08-19T04:48:57;34.40;;;21.20;;
6051;SDS011;3054;51.204;4.430;2022-08-19T04:51:24;32.33;;;21.77;;
6051;SDS011;3054;51.204;4.430;2022-08-19T04:53:51;29.90;;;19.57;;
6051;SDS011;3054;51.204;4.430;2022-08-19T04:56:19;30.80;;;19.83;;
6051;SDS011;3054;51.204;4.430;2022-08-19T04:58:47;33.70;;;20.10;;
6051;SDS011;3054;51.204;4.430;2022-08-19T05:01:19;38.07;;;19.87;;
6051;SDS011;3054;51.204;4.430;2022-08-19T05:03:48;35.83;;;18.33;;
6051;SDS011;3054;51.204;4.430;2022-08-19T05:06:16;39.77;;;20.80;;
6051;SDS011;3054;51.204;4.430;2022-08-19T05:08:45;30.77;;;19.60;;
6051;SDS011;3054;51.204;4.430;2022-08-19T05:11:13;32.23;;;17.57;;
6051;SDS011;3054;51.204;4.430;2022-08-19T05:13:41;30.40;;;17.97;;
6051;SDS011;3054;51.204;4.430;2022-08-19T05:16:10;27.53;;;17.43;;
6051;SDS011;3054;51.204;4.430;2022-08-19T05:18:38;27.30;;;18.00;;
6051;SDS011;3054;51.204;4.430;2022-08-19T05:21:24;29.60;;;17.10;;
6051;SDS011;3054;51.204;4.430;2022-08-19T05:24:09;35.73;;;16.97;;
6051;SDS011;3054;51.204;4.430;2022-08-19T05:26:40;29.53;;;18.33;;
6051;SDS011;3054;51.204;4.430;2022-08-19T05:29:11;34.13;;;20.07;;
6051;SDS011;3054;51.204;4.430;2022-08-19T05:31:39;27.33;;;17.70;;
6051;SDS011;3054;51.204;4.430;2022-08-19T05:34:07;27.70;;;17.63;;
6051;SDS011;3054;51.204;4.430;2022-08-19T05:36:36;35.30;;;19.47;;
6051;SDS011;3054;51.204;4.430;2022-08-19T05:39:05;30.50;;;18.87;;
6051;SDS011;3054;51.204;4.430;2022-08-19T05:41:33;22.80;;;16.80;;
6051;SDS011;3054;51.204;4.430;2022-08-19T05:44:02;27.77;;;18.20;;
6051;SDS011;3054;51.204;4.430;2022-08-19T05:46:34;32.90;;;18.07;;
6051;SDS011;3054;51.204;4.430;2022-08-19T05:49:02;32.63;;;17.33;;
6051;SDS011;3054;51.204;4.430;2022-08-19T05:51:31;22.70;;;14.97;;
6051;SDS011;3054;51.204;4.430;2022-08-19T05:53:59;26.37;;;16.50;;
6051;SDS011;3054;51.204;4.430;2022-08-19T05:56:26;26.47;;;17.30;;
6051;SDS011;3054;51.204;4.430;2022-08-19T05:58:53;28.77;;;16.23;;
6051;SDS011;3054;51.204;4.430;2022-08-19T06:01:20;32.13;;;15.50;;
6051;SDS011;3054;51.204;4.430;2022-08-19T06:03:47;25.33;;;14.07;;
6051;SDS011;3054;51.204;4.430;2022-08-19T06:06:15;20.47;;;12.97;;
6051;SDS011;3054;51.204;4.430;2022-08-19T06:08:43;25.10;;;14.10;;
6051;SDS011;3054;51.204;4.430;2022-08-19T06:11:17;24.93;;;13.90;;
6051;SDS011;3054;51.204;4.430;2022-08-19T06:13:48;22.77;;;14.13;;
6051;SDS011;3054;51.204;4.430;2022-08-19T06:16:17;20.50;;;13.97;;
6051;SDS011;3054;51.204;4.430;2022-08-19T06:18:48;27.37;;;13.70;;
6051;SDS011;3054;51.204;4.430;2022-08-19T06:21:18;28.87;;;14.67;;
6051;SDS011;3054;51.204;4.430;2022-08-19T06:23:46;29.63;;;14.30;;
6051;SDS011;3054;51.204;4.430;2022-08-19T06:26:13;24.60;;;13.47;;
6051;SDS011;3054;51.204;4.430;2022-08-19T06:28:41;39.80;;;14.33;;
6051;SDS011;3054;51.204;4.430;2022-08-19T06:31:11;25.63;;;13.00;;
6051;SDS011;3054;51.204;4.430;2022-08-19T06:33:39;17.43;;;11.40;;
6051;SDS011;3054;51.204;4.430;2022-08-19T06:36:07;19.53;;;12.40;;
6051;SDS011;3054;51.204;4.430;2022-08-19T06:38:41;23.93;;;13.97;;
6051;SDS011;3054;51.204;4.430;2022-08-19T06:41:10;26.43;;;13.07;;
6051;SDS011;3054;51.204;4.430;2022-08-19T06:43:37;28.37;;;14.87;;
6051;SDS011;3054;51.204;4.430;2022-08-19T06:46:08;24.03;;;14.83;;
6051;SDS011;3054;51.204;4.430;2022-08-19T06:48:37;28.27;;;16.23;;
6051;SDS011;3054;51.204;4.430;2022-08-19T06:51:05;42.67;;;17.30;;
6051;SDS011;3054;51.204;4.430;2022-08-19T06:53:32;28.80;;;16.20;;
6051;SDS011;3054;51.204;4.430;2022-08-19T06:55:59;30.20;;;16.57;;
6051;SDS011;3054;51.204;4.430;2022-08-19T06:58:28;32.30;;;16.90;;
6051;SDS011;3054;51.204;4.430;2022-08-19T07:00:58;27.33;;;14.90;;
6051;SDS011;3054;51.204;4.430;2022-08-19T07:03:28;35.67;;;16.10;;
6051;SDS011;3054;51.204;4.430;2022-08-19T07:05:56;24.10;;;15.00;;
6051;SDS011;3054;51.204;4.430;2022-08-19T07:08:24;25.57;;;15.30;;
6051;SDS011;3054;51.204;4.430;2022-08-19T07:10:52;30.57;;;15.73;;
6051;SDS011;3054;51.204;4.430;2022-08-19T07:13:19;20.87;;;15.90;;
6051;SDS011;3054;51.204;4.430;2022-08-19T07:15:50;24.93;;;15.13;;
6051;SDS011;3054;51.204;4.430;2022-08-19T07:18:17;28.20;;;15.33;;
6051;SDS011;3054;51.204;4.430;2022-08-19T07:20:45;23.07;;;13.80;;
6051;SDS011;3054;51.204;4.430;2022-08-19T07:23:13;24.60;;;13.60;;
6051;SDS011;3054;51.204;4.430;2022-08-19T07:25:40;23.93;;;13.30;;
6051;SDS011;3054;51.204;4.430;2022-08-19T07:28:08;23.97;;;13.43;;
6051;SDS011;3054;51.204;4.430;2022-08-19T07:30:36;23.37;;;14.67;;
6051;SDS011;3054;51.204;4.430;2022-08-19T07:33:04;24.13;;;14.63;;
6051;SDS011;3054;51.204;4.430;2022-08-19T07:35:31;37.17;;;14.30;;
6051;SDS011;3054;51.204;4.430;2022-08-19T07:37:58;21.00;;;14.30;;
6051;SDS011;3054;51.204;4.430;2022-08-19T07:40:28;23.73;;;14.30;;
6051;SDS011;3054;51.204;4.430;2022-08-19T07:42:55;27.90;;;15.00;;
6051;SDS011;3054;51.204;4.430;2022-08-19T07:45:22;23.60;;;14.60;;
6051;SDS011;3054;51.204;4.430;2022-08-19T07:47:49;29.90;;;14.97;;
6051;SDS011;3054;51.204;4.430;2022-08-19T07:50:17;26.33;;;14.30;;
6051;SDS011;3054;51.204;4.430;2022-08-19T07:52:45;26.73;;;17.40;;
6051;SDS011;3054;51.204;4.430;2022-08-19T07:55:14;28.97;;;17.20;;
6051;SDS011;3054;51.204;4.430;2022-08-19T07:57:42;31.80;;;17.80;;
6051;SDS011;3054;51.204;4.430;2022-08-19T08:00:10;24.37;;;17.00;;
6051;SDS011;3054;51.204;4.430;2022-08-19T08:02:37;25.50;;;17.00;;
6051;SDS011;3054;51.204;4.430;2022-08-19T08:05:07;26.63;;;16.30;;
6051;SDS011;3054;51.204;4.430;2022-08-19T08:07:53;24.47;;;16.20;;
6051;SDS011;3054;51.204;4.430;2022-08-19T08:10:38;27.63;;;16.50;;
6051;SDS011;3054;51.204;4.430;2022-08-19T08:13:05;21.53;;;17.00;;
6051;SDS011;3054;51.204;4.430;2022-08-19T08:15:32;24.40;;;14.70;;
6051;SDS011;3054;51.204;4.430;2022-08-19T08:17:59;31.10;;;15.00;;
6051;SDS011;3054;51.204;4.430;2022-08-19T08:20:26;21.30;;;14.90;;
6051;SDS011;3054;51.204;4.430;2022-08-19T08:22:54;21.57;;;12.83;;
6051;SDS011;3054;51.204;4.430;2022-08-19T08:25:38;25.70;;;15.23;;
6051;SDS011;3054;51.204;4.430;2022-08-19T08:28:05;28.80;;;16.00;;
6051;SDS011;3054;51.204;4.430;2022-08-19T08:30:34;24.70;;;16.40;;
6051;SDS011;3054;51.204;4.430;2022-08-19T08:33:02;21.20;;;14.70;;
6051;SDS011;3054;51.204;4.430;2022-08-19T08:35:29;23.40;;;15.93;;
6051;SDS011;3054;51.204;4.430;2022-08-19T08:37:57;23.33;;;13.37;;
6051;SDS011;3054;51.204;4.430;2022-08-19T08:40:26;20.07;;;12.50;;
6051;SDS011;3054;51.204;4.430;2022-08-19T08:42:57;20.27;;;13.20;;
6051;SDS011;3054;51.204;4.430;2022-08-19T08:45:33;17.97;;;12.47;;
6051;SDS011;3054;51.204;4.430;2022-08-19T08:48:04;22.90;;;14.17;;
6051;SDS011;3054;51.204;4.430;2022-08-19T08:50:41;21.53;;;15.23;;
6051;SDS011;3054;51.204;4.430;2022-08-19T08:53:14;19.93;;;12.90;;
6051;SDS011;3054;51.204;4.430;2022-08-19T08:55:43;16.13;;;12.00;;
6051;SDS011;3054;51.204;4.430;2022-08-19T08:58:12;25.20;;;12.50;;
6051;SDS011;3054;51.204;4.430;2022-08-19T09:00:45;17.40;;;13.07;;
6051;SDS011;3054;51.204;4.430;2022-08-19T09:03:16;22.03;;;11.33;;
6051;SDS011;3054;51.204;4.430;2022-08-19T09:05:48;17.87;;;11.13;;
6051;SDS011;3054;51.204;4.430;2022-08-19T09:08:27;13.87;;;9.90;;
6051;SDS011;3054;51.204;4.430;2022-08-19T09:11:03;17.13;;;10.60;;
6051;SDS011;3054;51.204;4.430;2022-08-19T09:13:38;15.43;;;10.33;;
6051;SDS011;3054;51.204;4.430;2022-08-19T09:16:12;16.77;;;9.77;;
6051;SDS011;3054;51.204;4.430;2022-08-19T09:18:42;13.83;;;9.77;;
6051;SDS011;3054;51.204;4.430;2022-08-19T09:21:11;17.47;;;11.00;;
6051;SDS011;3054;51.204;4.430;2022-08-19T09:23:39;14.07;;;9.90;;
6051;SDS011;3054;51.204;4.430;2022-08-19T09:26:09;17.87;;;10.43;;
6051;SDS011;3054;51.204;4.430;2022-08-19T09:28:38;18.60;;;12.57;;
6051;SDS011;3054;51.204;4.430;2022-08-19T09:31:08;12.47;;;11.07;;
6051;SDS011;3054;51.204;4.430;2022-08-19T09:33:35;16.50;;;12.03;;
6051;SDS011;3054;51.204;4.430;2022-08-19T09:36:03;19.70;;;11.97;;
6051;SDS011;3054;51.204;4.430;2022-08-19T09:38:32;18.53;;;11.53;;
6051;SDS011;3054;51.204;4.430;2022-08-19T09:41:03;24.23;;;12.13;;
6051;SDS011;3054;51.204;4.430;2022-08-19T09:43:31;24.50;;;12.00;;
6051;SDS011;3054;51.204;4.430;2022-08-19T09:45:58;17.00;;;10.83;;
6051;SDS011;3054;51.204;4.430;2022-08-19T09:48:25;27.67;;;11.03;;
6051;SDS011;3054;51.204;4.430;2022-08-19T09:50:52;18.03;;;12.10;;
6051;SDS011;3054;51.204;4.430;2022-08-19T09:53:19;24.30;;;13.07;;
6051;SDS011;3054;51.204;4.430;2022-08-19T09:55:48;26.13;;;14.37;;
6051;SDS011;3054;51.204;4.430;2022-08-19T09:58:16;21.80;;;14.20;;
6051;SDS011;3054;51.204;4.430;2022-08-19T10:00:44;22.93;;;12.90;;
6051;SDS011;3054;51.204;4.430;2022-08-19T10:03:11;22.80;;;13.27;;
6051;SDS011;3054;51.204;4.430;2022-08-19T10:05:38;23.47;;;13.00;;
6051;SDS011;3054;51.204;4.430;2022-08-19T10:08:14;25.30;;;13.33;;
6051;SDS011;3054;51.204;4.430;2022-08-19T10:10:42;20.20;;;13.03;;
6051;SDS011;3054;51.204;4.430;2022-08-19T10:13:10;18.03;;;11.10;;
6051;SDS011;3054;51.204;4.430;2022-08-19T10:15:39;19.60;;;11.93;;
6051;SDS011;3054;51.204;4.430;2022-08-19T10:18:07;17.77;;;10.57;;
6051;SDS011;3054;51.204;4.430;2022-08-19T10:20:34;22.77;;;12.47;;
6051;SDS011;3054;51.204;4.430;2022-08-19T10:23:02;15.20;;;10.93;;
6051;SDS011;3054;51.204;4.430;2022-08-19T10:25:29;21.27;;;11.30;;
6051;SDS011;3054;51.204;4.430;2022-08-19T10:27:59;31.63;;;10.93;;
6051;SDS011;3054;51.204;4.430;2022-08-19T10:30:26;17.90;;;10.77;;
6051;SDS011;3054;51.204;4.430;2022-08-19T10:32:54;22.60;;;10.93;;
6051;SDS011;3054;51.204;4.430;2022-08-19T10:35:22;22.90;;;12.13;;
6051;SDS011;3054;51.204;4.430;2022-08-19T10:37:51;20.10;;;11.30;;
6051;SDS011;3054;51.204;4.430;2022-08-19T10:40:18;21.60;;;11.80;;
6051;SDS011;3054;51.204;4.430;2022-08-19T10:42:45;23.60;;;11.70;;
6051;SDS011;3054;51.204;4.430;2022-08-19T10:45:12;18.57;;;11.87;;
6051;SDS011;3054;51.204;4.430;2022-08-19T10:47:39;19.17;;;11.30;;
6051;SDS011;3054;51.204;4.430;2022-08-19T10:50:07;21.83;;;11.17;;
6051;SDS011;3054;51.204;4.430;2022-08-19T10:52:52;21.57;;;11.70;;
6051;SDS011;3054;51.204;4.430;2022-08-19T10:55:19;22.83;;;12.00;;
6051;SDS011;3054;51.204;4.430;2022-08-19T10:58:09;24.07;;;13.30;;
6051;SDS011;3054;51.204;4.430;2022-08-19T11:00:38;21.57;;;13.90;;
6051;SDS011;3054;51.204;4.430;2022-08-19T11:03:05;28.83;;;12.53;;
6051;SDS011;3054;51.204;4.430;2022-08-19T11:05:33;17.30;;;10.40;;
6051;SDS011;3054;51.204;4.430;2022-08-19T11:08:02;18.73;;;11.10;;
6051;SDS011;3054;51.204;4.430;2022-08-19T11:10:30;18.63;;;12.67;;
6051;SDS011;3054;51.204;4.430;2022-08-19T11:12:57;18.57;;;11.37;;
6051;SDS011;3054;51.204;4.430;2022-08-19T11:15:25;17.77;;;12.10;;
6051;SDS011;3054;51.204;4.430;2022-08-19T11:17:53;21.97;;;12.03;;
6051;SDS011;3054;51.204;4.430;2022-08-19T11:20:21;13.13;;;10.50;;
6051;SDS011;3054;51.204;4.430;2022-08-19T11:22:50;12.83;;;10.87;;
6051;SDS011;3054;51.204;4.430;2022-08-19T11:25:18;19.47;;;11.60;;
6051;SDS011;3054;51.204;4.430;2022-08-19T11:27:45;17.37;;;10.80;;
6051;SDS011;3054;51.204;4.430;2022-08-19T11:30:16;19.60;;;12.03;;
6051;SDS011;3054;51.204;4.430;2022-08-19T11:32:43;14.30;;;10.20;;
6051;SDS011;3054;51.204;4.430;2022-08-19T11:35:10;13.33;;;9.23;;
6051;SDS011;3054;51.204;4.430;2022-08-19T11:37:37;13.60;;;9.80;;
6051;SDS011;3054;51.204;4.430;2022-08-19T11:40:06;17.17;;;8.63;;
6051;SDS011;3054;51.204;4.430;2022-08-19T11:42:34;13.45;;;8.90;;
6051;SDS011;3054;51.204;4.430;2022-08-19T11:45:18;16.02;;;8.13;;
6051;SDS011;3054;51.204;4.430;2022-08-19T11:47:45;10.48;;;8.10;;
6051;SDS011;3054;51.204;4.430;2022-08-19T11:50:12;8.73;;;7.10;;
6051;SDS011;3054;51.204;4.430;2022-08-19T11:52:39;15.18;;;8.50;;
6051;SDS011;3054;51.204;4.430;2022-08-19T11:55:08;8.75;;;7.72;;
6051;SDS011;3054;51.204;4.430;2022-08-19T11:57:35;16.60;;;6.82;;
6051;SDS011;3054;51.204;4.430;2022-08-19T12:00:03;9.90;;;7.78;;
6051;SDS011;3054;51.204;4.430;2022-08-19T12:02:31;12.30;;;6.30;;
6051;SDS011;3054;51.204;4.430;2022-08-19T12:04:58;9.52;;;6.95;;
6051;SDS011;3054;51.204;4.430;2022-08-19T12:07:26;11.32;;;6.78;;
6051;SDS011;3054;51.204;4.430;2022-08-19T12:09:54;14.27;;;6.22;;
6051;SDS011;3054;51.204;4.430;2022-08-19T12:12:23;8.25;;;6.35;;
6051;SDS011;3054;51.204;4.430;2022-08-19T12:14:51;9.95;;;5.60;;
6051;SDS011;3054;51.204;4.430;2022-08-19T12:17:21;10.48;;;6.25;;
6051;SDS011;3054;51.204;4.430;2022-08-19T12:19:51;10.55;;;6.00;;
6051;SDS011;3054;51.204;4.430;2022-08-19T12:22:18;5.63;;;4.78;;
6051;SDS011;3054;51.204;4.430;2022-08-19T12:24:46;5.10;;;4.60;;
6051;SDS011;3054;51.204;4.430;2022-08-19T12:27:16;6.35;;;4.30;;
6051;SDS011;3054;51.204;4.430;2022-08-19T12:29:44;7.28;;;3.90;;
6051;SDS011;3054;51.204;4.430;2022-08-19T12:32:11;6.07;;;4.32;;
6051;SDS011;3054;51.204;4.430;2022-08-19T12:34:38;6.88;;;4.82;;
6051;SDS011;3054;51.204;4.430;2022-08-19T12:37:06;9.45;;;5.18;;
6051;SDS011;3054;51.204;4.430;2022-08-19T12:39:34;6.95;;;5.00;;
6051;SDS011;3054;51.204;4.430;2022-08-19T12:42:02;8.05;;;4.53;;
6051;SDS011;3054;51.204;4.430;2022-08-19T12:44:29;8.32;;;4.60;;
6051;SDS011;3054;51.204;4.430;2022-08-19T12:46:58;6.30;;;4.47;;
6051;SDS011;3054;51.204;4.430;2022-08-19T12:49:27;5.82;;;4.13;;
6051;SDS011;3054;51.204;4.430;2022-08-19T12:51:54;3.83;;;3.47;;
6051;SDS011;3054;51.204;4.430;2022-08-19T12:54:23;4.75;;;3.17;;
6051;SDS011;3054;51.204;4.430;2022-08-19T12:56:49;5.18;;;3.60;;
6051;SDS011;3054;51.204;4.430;2022-08-19T12:59:17;5.38;;;3.70;;
6051;SDS011;3054;51.204;4.430;2022-08-19T13:01:45;4.93;;;3.45;;
6051;SDS011;3054;51.204;4.430;2022-08-19T13:04:13;3.70;;;3.28;;
6051;SDS011;3054;51.204;4.430;2022-08-19T13:06:41;5.40;;;3.72;;
6051;SDS011;3054;51.204;4.430;2022-08-19T13:09:08;4.05;;;3.35;;
6051;SDS011;3054;51.204;4.430;2022-08-19T13:11:36;6.45;;;3.90;;
6051;SDS011;3054;51.204;4.430;2022-08-19T13:14:04;6.13;;;3.60;;
6051;SDS011;3054;51.204;4.430;2022-08-19T13:16:31;14.05;;;2.67;;
6051;SDS011;3054;51.204;4.430;2022-08-19T13:18:58;9.25;;;3.45;;
6051;SDS011;3054;51.204;4.430;2022-08-19T13:21:29;3.17;;;2.83;;
6051;SDS011;3054;51.204;4.430;2022-08-19T13:23:56;10.25;;;3.08;;
6051;SDS011;3054;51.204;4.430;2022-08-19T13:26:23;4.53;;;3.42;;
6051;SDS011;3054;51.204;4.430;2022-08-19T13:28:50;10.45;;;2.70;;
6051;SDS011;3054;51.204;4.430;2022-08-19T13:31:36;4.72;;;3.03;;
6051;SDS011;3054;51.204;4.430;2022-08-19T13:34:25;4.20;;;2.35;;
6051;SDS011;3054;51.204;4.430;2022-08-19T13:36:56;2.55;;;2.33;;
6051;SDS011;3054;51.204;4.430;2022-08-19T13:39:23;4.82;;;3.13;;
6051;SDS011;3054;51.204;4.430;2022-08-19T13:41:50;4.88;;;3.03;;
6051;SDS011;3054;51.204;4.430;2022-08-19T13:44:18;5.95;;;3.47;;
6051;SDS011;3054;51.204;4.430;2022-08-19T13:46:45;6.35;;;2.55;;
6051;SDS011;3054;51.204;4.430;2022-08-19T13:49:13;2.10;;;2.00;;
6051;SDS011;3054;51.204;4.430;2022-08-19T13:51:41;3.70;;;2.20;;
6051;SDS011;3054;51.204;4.430;2022-08-19T13:54:10;6.30;;;2.33;;
6051;SDS011;3054;51.204;4.430;2022-08-19T13:56:39;7.88;;;2.35;;
6051;SDS011;3054;51.204;4.430;2022-08-19T13:59:07;9.30;;;2.35;;
6051;SDS011;3054;51.204;4.430;2022-08-19T14:01:34;4.97;;;1.90;;
6051;SDS011;3054;51.204;4.430;2022-08-19T14:04:01;11.10;;;2.30;;
6051;SDS011;3054;51.204;4.430;2022-08-19T14:06:28;6.78;;;3.08;;
6051;SDS011;3054;51.204;4.430;2022-08-19T14:08:55;4.97;;;2.85;;
6051;SDS011;3054;51.204;4.430;2022-08-19T14:11:23;4.60;;;4.15;;
6051;SDS011;3054;51.204;4.430;2022-08-19T14:13:50;4.28;;;3.83;;
6051;SDS011;3054;51.204;4.430;2022-08-19T14:16:17;3.90;;;3.33;;
6051;SDS011;3054;51.204;4.430;2022-08-19T14:18:44;3.83;;;2.88;;
6051;SDS011;3054;51.204;4.430;2022-08-19T14:21:14;5.80;;;3.65;;
6051;SDS011;3054;51.204;4.430;2022-08-19T14:23:42;3.63;;;2.95;;
6051;SDS011;3054;51.204;4.430;2022-08-19T14:26:11;3.80;;;3.22;;
6051;SDS011;3054;51.204;4.430;2022-08-19T14:28:42;3.60;;;2.85;;
6051;SDS011;3054;51.204;4.430;2022-08-19T14:31:10;2.75;;;2.42;;
6051;SDS011;3054;51.204;4.430;2022-08-19T14:33:37;4.82;;;2.58;;
6051;SDS011;3054;51.204;4.430;2022-08-19T14:36:05;2.80;;;2.50;;
6051;SDS011;3054;51.204;4.430;2022-08-19T14:38:32;2.40;;;2.20;;
6051;SDS011;3054;51.204;4.430;2022-08-19T14:41:08;7.35;;;2.50;;
6051;SDS011;3054;51.204;4.430;2022-08-19T14:43:37;3.70;;;1.50;;
6051;SDS011;3054;51.204;4.430;2022-08-19T14:46:07;3.00;;;1.83;;
6051;SDS011;3054;51.204;4.430;2022-08-19T14:48:35;3.05;;;1.98;;
6051;SDS011;3054;51.204;4.430;2022-08-19T14:51:04;2.85;;;1.75;;
6051;SDS011;3054;51.204;4.430;2022-08-19T14:53:31;2.03;;;1.83;;
6051;SDS011;3054;51.204;4.430;2022-08-19T14:55:59;3.28;;;1.90;;
6051;SDS011;3054;51.204;4.430;2022-08-19T14:58:27;8.27;;;2.38;;
6051;SDS011;3054;51.204;4.430;2022-08-19T15:00:54;6.78;;;1.75;;
6051;SDS011;3054;51.204;4.430;2022-08-19T15:03:22;4.55;;;2.40;;
6051;SDS011;3054;51.204;4.430;2022-08-19T15:05:51;5.78;;;2.08;;